sensor_id;sensor_type;location;lat;lon;timestamp;P1;durP1;ratioP1;P2;durP2;ratioP2
46363;SDS011;32071;49.036;9.344;2023-09-30T00:00:16;3.53;;;2.40;;
46363;SDS011;32071;49.036;9.344;2023-09-30T00:02:42;3.53;;;2.30;;
46363;SDS011;32071;49.036;9.344;2023-09-30T00:05:07;3.50;;;2.57;;
46363;SDS011;32071;49.036;9.344;2023-09-30T00:07:34;3.80;;;2.50;;
46363;SDS011;32071;49.036;9.344;2023-09-30T00:09:59;4.73;;;3.10;;
46363;SDS011;32071;49.036;9.344;2023-09-30T00:12:25;5.10;;;3.40;;
46363;SDS011;32071;49.036;9.344;2023-09-30T00:14:52;2.83;;;2.53;;
46363;SDS011;32071;49.036;9.344;2023-09-30T00:17:18;5.47;;;3.27;;
46363;SDS011;32071;49.036;9.344;2023-09-30T00:19:44;3.33;;;2.87;;
46363;SDS011;32071;49.036;9.344;2023-09-30T00:22:09;3.83;;;3.20;;
46363;SDS011;32071;49.036;9.344;2023-09-30T00:24:35;3.43;;;2.80;;
46363;SDS011;32071;49.036;9.344;2023-09-30T00:27:01;3.30;;;3.00;;
46363;SDS011;32071;49.036;9.344;2023-09-30T00:29:26;3.67;;;3.10;;
46363;SDS011;32071;49.036;9.344;2023-09-30T00:31:52;6.27;;;3.87;;
46363;SDS011;32071;49.036;9.344;2023-09-30T00:34:17;7.83;;;3.80;;
46363;SDS011;32071;49.036;9.344;2023-09-30T00:36:43;6.67;;;2.90;;
46363;SDS011;32071;49.036;9.344;2023-09-30T00:39:09;5.37;;;3.50;;
46363;SDS011;32071;49.036;9.344;2023-09-30T00:41:35;6.40;;;3.30;;
46363;SDS011;32071;49.036;9.344;2023-09-30T00:44:01;4.73;;;2.80;;
46363;SDS011;32071;49.036;9.344;2023-09-30T00:46:31;3.87;;;3.00;;
46363;SDS011;32071;49.036;9.344;2023-09-30T00:48:58;4.03;;;3.37;;
46363;SDS011;32071;49.036;9.344;2023-09-30T00:51:25;5.20;;;3.30;;
46363;SDS011;32071;49.036;9.344;2023-09-30T00:53:51;5.20;;;2.80;;
46363;SDS011;32071;49.036;9.344;2023-09-30T00:56:18;4.43;;;3.50;;
46363;SDS011;32071;49.036;9.344;2023-09-30T00:58:46;5.43;;;3.70;;
46363;SDS011;32071;49.036;9.344;2023-09-30T01:01:13;4.17;;;3.20;;
46363;SDS011;32071;49.036;9.344;2023-09-30T01:03:40;4.37;;;3.33;;
46363;SDS011;32071;49.036;9.344;2023-09-30T01:06:06;3.50;;;3.00;;
46363;SDS011;32071;49.036;9.344;2023-09-30T01:08:32;3.60;;;2.80;;
46363;SDS011;32071;49.036;9.344;2023-09-30T01:10:59;3.07;;;2.80;;
46363;SDS011;32071;49.036;9.344;2023-09-30T01:13:31;8.83;;;2.93;;
46363;SDS011;32071;49.036;9.344;2023-09-30T01:16:07;3.10;;;2.80;;
46363;SDS011;32071;49.036;9.344;2023-09-30T01:18:37;7.73;;;3.53;;
46363;SDS011;32071;49.036;9.344;2023-09-30T01:21:07;3.13;;;2.83;;
46363;SDS011;32071;49.036;9.344;2023-09-30T01:23:34;3.50;;;3.20;;
46363;SDS011;32071;49.036;9.344;2023-09-30T01:26:09;5.20;;;3.23;;
46363;SDS011;32071;49.036;9.344;2023-09-30T01:28:39;3.40;;;3.10;;
46363;SDS011;32071;49.036;9.344;2023-09-30T01:31:05;3.50;;;3.20;;
46363;SDS011;32071;49.036;9.344;2023-09-30T01:33:31;5.70;;;3.50;;
46363;SDS011;32071;49.036;9.344;2023-09-30T01:35:58;3.93;;;3.20;;
46363;SDS011;32071;49.036;9.344;2023-09-30T01:38:24;5.20;;;3.90;;
46363;SDS011;32071;49.036;9.344;2023-09-30T01:40:50;7.07;;;3.60;;
46363;SDS011;32071;49.036;9.344;2023-09-30T01:43:16;7.00;;;3.70;;
46363;SDS011;32071;49.036;9.344;2023-09-30T01:45:42;5.63;;;3.77;;
46363;SDS011;32071;49.036;9.344;2023-09-30T01:48:08;4.17;;;3.77;;
46363;SDS011;32071;49.036;9.344;2023-09-30T01:50:38;4.47;;;3.83;;
46363;SDS011;32071;49.036;9.344;2023-09-30T01:53:04;6.83;;;4.40;;
46363;SDS011;32071;49.036;9.344;2023-09-30T01:55:31;6.00;;;3.70;;
46363;SDS011;32071;49.036;9.344;2023-09-30T01:58:01;3.53;;;3.23;;
46363;SDS011;32071;49.036;9.344;2023-09-30T02:00:27;4.40;;;3.40;;
46363;SDS011;32071;49.036;9.344;2023-09-30T02:02:54;4.20;;;3.73;;
46363;SDS011;32071;49.036;9.344;2023-09-30T02:05:20;4.17;;;3.30;;
46363;SDS011;32071;49.036;9.344;2023-09-30T02:07:47;4.30;;;3.57;;
46363;SDS011;32071;49.036;9.344;2023-09-30T02:10:13;4.10;;;3.60;;
46363;SDS011;32071;49.036;9.344;2023-09-30T02:12:38;4.57;;;3.57;;
46363;SDS011;32071;49.036;9.344;2023-09-30T02:15:04;5.20;;;3.77;;
46363;SDS011;32071;49.036;9.344;2023-09-30T02:17:32;4.30;;;3.63;;
46363;SDS011;32071;49.036;9.344;2023-09-30T02:19:57;3.90;;;3.50;;
46363;SDS011;32071;49.036;9.344;2023-09-30T02:22:23;6.27;;;5.10;;
46363;SDS011;32071;49.036;9.344;2023-09-30T02:24:49;5.73;;;3.30;;
46363;SDS011;32071;49.036;9.344;2023-09-30T02:27:15;4.33;;;3.93;;
46363;SDS011;32071;49.036;9.344;2023-09-30T02:29:41;4.93;;;3.90;;
46363;SDS011;32071;49.036;9.344;2023-09-30T02:32:07;7.83;;;4.10;;
46363;SDS011;32071;49.036;9.344;2023-09-30T02:34:34;5.90;;;4.20;;
46363;SDS011;32071;49.036;9.344;2023-09-30T02:37:00;6.70;;;4.43;;
46363;SDS011;32071;49.036;9.344;2023-09-30T02:39:26;5.00;;;4.00;;
46363;SDS011;32071;49.036;9.344;2023-09-30T02:41:51;5.97;;;3.80;;
46363;SDS011;32071;49.036;9.344;2023-09-30T02:44:17;4.83;;;3.60;;
46363;SDS011;32071;49.036;9.344;2023-09-30T02:46:43;5.90;;;4.37;;
46363;SDS011;32071;49.036;9.344;2023-09-30T02:49:08;6.10;;;4.20;;
46363;SDS011;32071;49.036;9.344;2023-09-30T02:51:34;4.87;;;3.83;;
46363;SDS011;32071;49.036;9.344;2023-09-30T02:54:00;8.77;;;3.80;;
46363;SDS011;32071;49.036;9.344;2023-09-30T02:56:25;5.17;;;4.67;;
46363;SDS011;32071;49.036;9.344;2023-09-30T02:58:53;4.50;;;3.87;;
46363;SDS011;32071;49.036;9.344;2023-09-30T03:01:19;6.10;;;4.43;;
46363;SDS011;32071;49.036;9.344;2023-09-30T03:03:45;8.57;;;4.67;;
46363;SDS011;32071;49.036;9.344;2023-09-30T03:06:11;6.80;;;4.43;;
46363;SDS011;32071;49.036;9.344;2023-09-30T03:08:37;5.27;;;4.77;;
46363;SDS011;32071;49.036;9.344;2023-09-30T03:11:02;6.50;;;5.37;;
46363;SDS011;32071;49.036;9.344;2023-09-30T03:13:29;5.47;;;4.43;;
46363;SDS011;32071;49.036;9.344;2023-09-30T03:15:55;5.93;;;4.83;;
46363;SDS011;32071;49.036;9.344;2023-09-30T03:18:21;5.13;;;4.33;;
46363;SDS011;32071;49.036;9.344;2023-09-30T03:20:51;4.93;;;4.53;;
46363;SDS011;32071;49.036;9.344;2023-09-30T03:23:21;6.50;;;4.87;;
46363;SDS011;32071;49.036;9.344;2023-09-30T03:25:47;6.00;;;4.47;;
46363;SDS011;32071;49.036;9.344;2023-09-30T03:28:13;7.87;;;4.33;;
46363;SDS011;32071;49.036;9.344;2023-09-30T03:30:40;5.93;;;4.27;;
46363;SDS011;32071;49.036;9.344;2023-09-30T03:33:05;5.43;;;4.00;;
46363;SDS011;32071;49.036;9.344;2023-09-30T03:35:31;7.77;;;4.40;;
46363;SDS011;32071;49.036;9.344;2023-09-30T03:37:57;5.93;;;4.70;;
46363;SDS011;32071;49.036;9.344;2023-09-30T03:40:23;7.07;;;4.57;;
46363;SDS011;32071;49.036;9.344;2023-09-30T03:42:56;8.87;;;4.00;;
46363;SDS011;32071;49.036;9.344;2023-09-30T03:45:21;7.00;;;4.50;;
46363;SDS011;32071;49.036;9.344;2023-09-30T03:47:47;9.20;;;4.50;;
46363;SDS011;32071;49.036;9.344;2023-09-30T03:50:13;5.97;;;4.10;;
46363;SDS011;32071;49.036;9.344;2023-09-30T03:52:40;6.10;;;4.00;;
46363;SDS011;32071;49.036;9.344;2023-09-30T03:55:09;8.40;;;5.10;;
46363;SDS011;32071;49.036;9.344;2023-09-30T03:57:40;5.40;;;4.60;;
46363;SDS011;32071;49.036;9.344;2023-09-30T04:00:06;8.57;;;6.33;;
46363;SDS011;32071;49.036;9.344;2023-09-30T04:02:36;7.90;;;5.10;;
46363;SDS011;32071;49.036;9.344;2023-09-30T04:05:02;7.13;;;4.67;;
46363;SDS011;32071;49.036;9.344;2023-09-30T04:07:29;9.67;;;5.83;;
46363;SDS011;32071;49.036;9.344;2023-09-30T04:09:55;5.93;;;4.20;;
46363;SDS011;32071;49.036;9.344;2023-09-30T04:12:21;5.10;;;4.60;;
46363;SDS011;32071;49.036;9.344;2023-09-30T04:14:48;13.57;;;4.77;;
46363;SDS011;32071;49.036;9.344;2023-09-30T04:17:14;10.10;;;5.07;;
46363;SDS011;32071;49.036;9.344;2023-09-30T04:19:40;6.73;;;4.33;;
46363;SDS011;32071;49.036;9.344;2023-09-30T04:22:05;6.43;;;4.30;;
46363;SDS011;32071;49.036;9.344;2023-09-30T04:24:31;6.70;;;5.00;;
46363;SDS011;32071;49.036;9.344;2023-09-30T04:26:56;7.10;;;4.87;;
46363;SDS011;32071;49.036;9.344;2023-09-30T04:29:27;8.13;;;5.40;;
46363;SDS011;32071;49.036;9.344;2023-09-30T04:31:54;5.80;;;4.53;;
46363;SDS011;32071;49.036;9.344;2023-09-30T04:34:20;6.17;;;5.00;;
46363;SDS011;32071;49.036;9.344;2023-09-30T04:36:46;7.27;;;5.77;;
46363;SDS011;32071;49.036;9.344;2023-09-30T04:39:12;7.60;;;5.37;;
46363;SDS011;32071;49.036;9.344;2023-09-30T04:41:39;6.10;;;4.57;;
46363;SDS011;32071;49.036;9.344;2023-09-30T04:44:06;6.63;;;4.90;;
46363;SDS011;32071;49.036;9.344;2023-09-30T04:46:34;6.50;;;4.57;;
46363;SDS011;32071;49.036;9.344;2023-09-30T04:48:59;4.50;;;4.10;;
46363;SDS011;32071;49.036;9.344;2023-09-30T04:51:27;6.77;;;4.10;;
46363;SDS011;32071;49.036;9.344;2023-09-30T04:53:52;6.90;;;4.63;;
46363;SDS011;32071;49.036;9.344;2023-09-30T04:56:20;5.50;;;4.90;;
46363;SDS011;32071;49.036;9.344;2023-09-30T04:58:45;6.47;;;5.20;;
46363;SDS011;32071;49.036;9.344;2023-09-30T05:01:12;6.97;;;4.53;;
46363;SDS011;32071;49.036;9.344;2023-09-30T05:03:37;6.37;;;5.40;;
46363;SDS011;32071;49.036;9.344;2023-09-30T05:06:03;5.00;;;4.47;;
46363;SDS011;32071;49.036;9.344;2023-09-30T05:08:29;9.67;;;5.03;;
46363;SDS011;32071;49.036;9.344;2023-09-30T05:10:56;7.30;;;3.90;;
46363;SDS011;32071;49.036;9.344;2023-09-30T05:13:21;6.57;;;4.60;;
46363;SDS011;32071;49.036;9.344;2023-09-30T05:15:50;7.67;;;5.40;;
46363;SDS011;32071;49.036;9.344;2023-09-30T05:18:16;7.70;;;4.70;;
46363;SDS011;32071;49.036;9.344;2023-09-30T05:20:42;7.73;;;5.17;;
46363;SDS011;32071;49.036;9.344;2023-09-30T05:23:08;11.37;;;5.07;;
46363;SDS011;32071;49.036;9.344;2023-09-30T05:25:37;5.93;;;4.73;;
46363;SDS011;32071;49.036;9.344;2023-09-30T05:28:03;7.40;;;5.23;;
46363;SDS011;32071;49.036;9.344;2023-09-30T05:30:30;5.80;;;4.47;;
46363;SDS011;32071;49.036;9.344;2023-09-30T05:32:56;8.30;;;5.30;;
46363;SDS011;32071;49.036;9.344;2023-09-30T05:35:23;6.13;;;4.80;;
46363;SDS011;32071;49.036;9.344;2023-09-30T05:37:49;5.53;;;4.50;;
46363;SDS011;32071;49.036;9.344;2023-09-30T05:40:17;4.57;;;4.07;;
46363;SDS011;32071;49.036;9.344;2023-09-30T05:42:51;7.20;;;5.13;;
46363;SDS011;32071;49.036;9.344;2023-09-30T05:45:18;5.27;;;4.77;;
46363;SDS011;32071;49.036;9.344;2023-09-30T05:47:43;9.10;;;4.87;;
46363;SDS011;32071;49.036;9.344;2023-09-30T05:50:09;7.77;;;5.50;;
46363;SDS011;32071;49.036;9.344;2023-09-30T05:52:39;8.67;;;5.23;;
46363;SDS011;32071;49.036;9.344;2023-09-30T05:55:05;6.30;;;4.57;;
46363;SDS011;32071;49.036;9.344;2023-09-30T05:57:31;8.77;;;5.27;;
46363;SDS011;32071;49.036;9.344;2023-09-30T05:59:57;6.57;;;5.00;;
46363;SDS011;32071;49.036;9.344;2023-09-30T06:02:23;6.13;;;4.77;;
46363;SDS011;32071;49.036;9.344;2023-09-30T06:04:49;7.40;;;4.80;;
46363;SDS011;32071;49.036;9.344;2023-09-30T06:07:16;6.33;;;5.10;;
46363;SDS011;32071;49.036;9.344;2023-09-30T06:09:41;7.20;;;5.37;;
46363;SDS011;32071;49.036;9.344;2023-09-30T06:12:07;5.40;;;4.70;;
46363;SDS011;32071;49.036;9.344;2023-09-30T06:14:34;6.43;;;5.23;;
46363;SDS011;32071;49.036;9.344;2023-09-30T06:16:59;5.83;;;4.37;;
46363;SDS011;32071;49.036;9.344;2023-09-30T06:19:25;6.87;;;5.10;;
46363;SDS011;32071;49.036;9.344;2023-09-30T06:21:52;7.30;;;5.27;;
46363;SDS011;32071;49.036;9.344;2023-09-30T06:24:17;6.97;;;5.30;;
46363;SDS011;32071;49.036;9.344;2023-09-30T06:26:46;12.40;;;5.33;;
46363;SDS011;32071;49.036;9.344;2023-09-30T06:29:13;8.90;;;5.10;;
46363;SDS011;32071;49.036;9.344;2023-09-30T06:31:39;6.37;;;5.70;;
46363;SDS011;32071;49.036;9.344;2023-09-30T06:34:05;11.17;;;4.77;;
46363;SDS011;32071;49.036;9.344;2023-09-30T06:36:31;6.80;;;5.40;;
46363;SDS011;32071;49.036;9.344;2023-09-30T06:38:57;8.33;;;5.30;;
46363;SDS011;32071;49.036;9.344;2023-09-30T06:41:23;6.20;;;5.30;;
46363;SDS011;32071;49.036;9.344;2023-09-30T06:43:50;8.80;;;5.27;;
46363;SDS011;32071;49.036;9.344;2023-09-30T06:46:16;7.97;;;5.60;;
46363;SDS011;32071;49.036;9.344;2023-09-30T06:48:42;7.50;;;5.83;;
46363;SDS011;32071;49.036;9.344;2023-09-30T06:51:12;6.73;;;5.50;;
46363;SDS011;32071;49.036;9.344;2023-09-30T06:53:39;6.63;;;5.37;;
46363;SDS011;32071;49.036;9.344;2023-09-30T06:56:05;6.03;;;5.43;;
46363;SDS011;32071;49.036;9.344;2023-09-30T06:58:31;8.00;;;5.90;;
46363;SDS011;32071;49.036;9.344;2023-09-30T07:00:57;7.60;;;6.30;;
46363;SDS011;32071;49.036;9.344;2023-09-30T07:03:22;9.40;;;5.83;;
46363;SDS011;32071;49.036;9.344;2023-09-30T07:05:48;6.33;;;5.23;;
46363;SDS011;32071;49.036;9.344;2023-09-30T07:08:17;5.80;;;5.20;;
46363;SDS011;32071;49.036;9.344;2023-09-30T07:10:43;7.53;;;5.67;;
46363;SDS011;32071;49.036;9.344;2023-09-30T07:13:14;12.90;;;7.67;;
46363;SDS011;32071;49.036;9.344;2023-09-30T07:15:40;9.27;;;6.23;;
46363;SDS011;32071;49.036;9.344;2023-09-30T07:18:05;9.83;;;5.67;;
46363;SDS011;32071;49.036;9.344;2023-09-30T07:20:31;7.43;;;5.80;;
46363;SDS011;32071;49.036;9.344;2023-09-30T07:22:58;7.17;;;5.43;;
46363;SDS011;32071;49.036;9.344;2023-09-30T07:25:25;9.30;;;6.00;;
46363;SDS011;32071;49.036;9.344;2023-09-30T07:27:51;6.63;;;5.77;;
46363;SDS011;32071;49.036;9.344;2023-09-30T07:30:17;9.40;;;5.97;;
46363;SDS011;32071;49.036;9.344;2023-09-30T07:32:42;8.83;;;6.33;;
46363;SDS011;32071;49.036;9.344;2023-09-30T07:35:09;9.73;;;6.50;;
46363;SDS011;32071;49.036;9.344;2023-09-30T07:37:35;11.23;;;6.83;;
46363;SDS011;32071;49.036;9.344;2023-09-30T07:40:00;11.40;;;6.87;;
46363;SDS011;32071;49.036;9.344;2023-09-30T07:42:26;10.73;;;7.60;;
46363;SDS011;32071;49.036;9.344;2023-09-30T07:44:52;9.77;;;6.90;;
46363;SDS011;32071;49.036;9.344;2023-09-30T07:47:19;11.10;;;7.40;;
46363;SDS011;32071;49.036;9.344;2023-09-30T07:49:44;11.83;;;7.90;;
46363;SDS011;32071;49.036;9.344;2023-09-30T07:52:10;10.30;;;6.40;;
46363;SDS011;32071;49.036;9.344;2023-09-30T07:54:36;11.00;;;7.20;;
46363;SDS011;32071;49.036;9.344;2023-09-30T07:57:01;13.87;;;7.60;;
46363;SDS011;32071;49.036;9.344;2023-09-30T07:59:27;12.90;;;6.60;;
46363;SDS011;32071;49.036;9.344;2023-09-30T08:01:53;9.07;;;6.53;;
46363;SDS011;32071;49.036;9.344;2023-09-30T08:04:18;12.00;;;6.60;;
46363;SDS011;32071;49.036;9.344;2023-09-30T08:06:44;9.40;;;6.37;;
46363;SDS011;32071;49.036;9.344;2023-09-30T08:09:13;12.67;;;6.47;;
46363;SDS011;32071;49.036;9.344;2023-09-30T08:11:38;9.90;;;6.63;;
46363;SDS011;32071;49.036;9.344;2023-09-30T08:14:04;7.73;;;6.10;;
46363;SDS011;32071;49.036;9.344;2023-09-30T08:16:34;11.10;;;7.30;;
46363;SDS011;32071;49.036;9.344;2023-09-30T08:19:03;10.20;;;6.57;;
46363;SDS011;32071;49.036;9.344;2023-09-30T08:21:29;8.03;;;6.00;;
46363;SDS011;32071;49.036;9.344;2023-09-30T08:23:55;13.43;;;6.40;;
46363;SDS011;32071;49.036;9.344;2023-09-30T08:26:22;7.23;;;5.60;;
46363;SDS011;32071;49.036;9.344;2023-09-30T08:28:47;13.90;;;6.90;;
46363;SDS011;32071;49.036;9.344;2023-09-30T08:31:13;16.97;;;12.50;;
46363;SDS011;32071;49.036;9.344;2023-09-30T08:33:39;10.27;;;7.13;;
46363;SDS011;32071;49.036;9.344;2023-09-30T08:36:10;9.70;;;6.10;;
46363;SDS011;32071;49.036;9.344;2023-09-30T08:38:36;12.77;;;6.60;;
46363;SDS011;32071;49.036;9.344;2023-09-30T08:41:03;8.67;;;5.50;;
46363;SDS011;32071;49.036;9.344;2023-09-30T08:43:29;9.40;;;5.70;;
46363;SDS011;32071;49.036;9.344;2023-09-30T08:45:58;8.77;;;7.07;;
46363;SDS011;32071;49.036;9.344;2023-09-30T08:48:25;9.40;;;7.63;;
46363;SDS011;32071;49.036;9.344;2023-09-30T08:50:52;8.87;;;7.03;;
46363;SDS011;32071;49.036;9.344;2023-09-30T08:53:19;11.10;;;6.87;;
46363;SDS011;32071;49.036;9.344;2023-09-30T08:55:46;8.67;;;6.63;;
46363;SDS011;32071;49.036;9.344;2023-09-30T08:58:12;9.43;;;7.10;;
46363;SDS011;32071;49.036;9.344;2023-09-30T09:00:38;13.60;;;8.17;;
46363;SDS011;32071;49.036;9.344;2023-09-30T09:03:04;14.00;;;8.50;;
46363;SDS011;32071;49.036;9.344;2023-09-30T09:05:32;10.17;;;7.77;;
46363;SDS011;32071;49.036;9.344;2023-09-30T09:07:58;11.33;;;7.30;;
46363;SDS011;32071;49.036;9.344;2023-09-30T09:10:23;24.77;;;8.07;;
46363;SDS011;32071;49.036;9.344;2023-09-30T09:12:55;20.20;;;7.23;;
46363;SDS011;32071;49.036;9.344;2023-09-30T09:15:23;19.37;;;7.67;;
46363;SDS011;32071;49.036;9.344;2023-09-30T09:17:51;14.03;;;8.47;;
46363;SDS011;32071;49.036;9.344;2023-09-30T09:20:18;12.83;;;7.43;;
46363;SDS011;32071;49.036;9.344;2023-09-30T09:22:45;11.47;;;7.43;;
46363;SDS011;32071;49.036;9.344;2023-09-30T09:25:12;10.40;;;6.93;;
46363;SDS011;32071;49.036;9.344;2023-09-30T09:27:38;9.47;;;8.30;;
46363;SDS011;32071;49.036;9.344;2023-09-30T09:30:13;8.17;;;6.80;;
46363;SDS011;32071;49.036;9.344;2023-09-30T09:32:51;8.80;;;6.83;;
46363;SDS011;32071;49.036;9.344;2023-09-30T09:35:25;9.83;;;7.13;;
46363;SDS011;32071;49.036;9.344;2023-09-30T09:40:29;12.20;;;6.70;;
46363;SDS011;32071;49.036;9.344;2023-09-30T09:42:57;7.90;;;6.20;;
46363;SDS011;32071;49.036;9.344;2023-09-30T09:45:27;6.53;;;5.73;;
46363;SDS011;32071;49.036;9.344;2023-09-30T09:47:53;9.50;;;5.30;;
46363;SDS011;32071;49.036;9.344;2023-09-30T09:50:20;7.97;;;6.30;;
46363;SDS011;32071;49.036;9.344;2023-09-30T09:52:50;10.20;;;6.50;;
46363;SDS011;32071;49.036;9.344;2023-09-30T09:55:17;9.30;;;6.30;;
46363;SDS011;32071;49.036;9.344;2023-09-30T09:57:44;8.87;;;6.10;;
46363;SDS011;32071;49.036;9.344;2023-09-30T10:00:20;8.00;;;5.83;;
46363;SDS011;32071;49.036;9.344;2023-09-30T10:02:48;7.40;;;5.57;;
46363;SDS011;32071;49.036;9.344;2023-09-30T10:05:15;9.43;;;6.67;;
46363;SDS011;32071;49.036;9.344;2023-09-30T10:07:56;8.37;;;5.70;;
46363;SDS011;32071;49.036;9.344;2023-09-30T10:10:26;11.00;;;6.70;;
46363;SDS011;32071;49.036;9.344;2023-09-30T10:12:53;7.30;;;5.70;;
46363;SDS011;32071;49.036;9.344;2023-09-30T10:17:57;10.70;;;7.00;;
46363;SDS011;32071;49.036;9.344;2023-09-30T10:20:30;9.10;;;6.17;;
46363;SDS011;32071;49.036;9.344;2023-09-30T10:26:33;9.83;;;6.77;;
46363;SDS011;32071;49.036;9.344;2023-09-30T10:28:51;9.03;;;5.50;;
46363;SDS011;32071;49.036;9.344;2023-09-30T10:31:17;9.97;;;5.60;;
46363;SDS011;32071;49.036;9.344;2023-09-30T10:36:31;10.77;;;7.13;;
46363;SDS011;32071;49.036;9.344;2023-09-30T10:38:57;13.77;;;6.17;;
46363;SDS011;32071;49.036;9.344;2023-09-30T10:44:32;7.70;;;6.37;;
46363;SDS011;32071;49.036;9.344;2023-09-30T10:46:58;8.00;;;5.33;;
46363;SDS011;32071;49.036;9.344;2023-09-30T10:51:54;9.67;;;6.20;;
46363;SDS011;32071;49.036;9.344;2023-09-30T10:54:25;7.23;;;5.93;;
46363;SDS011;32071;49.036;9.344;2023-09-30T10:56:53;8.53;;;5.97;;
46363;SDS011;32071;49.036;9.344;2023-09-30T10:59:19;8.70;;;5.60;;
46363;SDS011;32071;49.036;9.344;2023-09-30T11:01:47;7.10;;;5.50;;
46363;SDS011;32071;49.036;9.344;2023-09-30T11:04:13;5.90;;;5.30;;
46363;SDS011;32071;49.036;9.344;2023-09-30T11:06:40;8.57;;;5.33;;
46363;SDS011;32071;49.036;9.344;2023-09-30T11:09:07;9.73;;;5.43;;
46363;SDS011;32071;49.036;9.344;2023-09-30T11:11:38;11.53;;;5.43;;
46363;SDS011;32071;49.036;9.344;2023-09-30T11:14:18;8.40;;;5.97;;
46363;SDS011;32071;49.036;9.344;2023-09-30T11:16:53;9.47;;;5.37;;
46363;SDS011;32071;49.036;9.344;2023-09-30T11:19:19;7.23;;;5.50;;
46363;SDS011;32071;49.036;9.344;2023-09-30T11:21:49;7.20;;;5.03;;
46363;SDS011;32071;49.036;9.344;2023-09-30T11:24:17;7.17;;;5.23;;
46363;SDS011;32071;49.036;9.344;2023-09-30T11:26:43;8.70;;;5.77;;
46363;SDS011;32071;49.036;9.344;2023-09-30T11:29:10;9.20;;;5.57;;
46363;SDS011;32071;49.036;9.344;2023-09-30T11:31:43;8.37;;;5.93;;
46363;SDS011;32071;49.036;9.344;2023-09-30T11:34:10;7.97;;;4.23;;
46363;SDS011;32071;49.036;9.344;2023-09-30T11:36:40;9.67;;;5.17;;
46363;SDS011;32071;49.036;9.344;2023-09-30T11:39:20;6.50;;;5.23;;
46363;SDS011;32071;49.036;9.344;2023-09-30T11:41:47;10.00;;;5.73;;
46363;SDS011;32071;49.036;9.344;2023-09-30T11:44:13;6.30;;;5.00;;
46363;SDS011;32071;49.036;9.344;2023-09-30T11:49:33;8.00;;;4.70;;
46363;SDS011;32071;49.036;9.344;2023-09-30T11:52:08;8.40;;;5.60;;
46363;SDS011;32071;49.036;9.344;2023-09-30T11:54:36;33.17;;;6.83;;
46363;SDS011;32071;49.036;9.344;2023-09-30T11:57:05;11.63;;;6.30;;
46363;SDS011;32071;49.036;9.344;2023-09-30T11:59:34;13.13;;;5.57;;
46363;SDS011;32071;49.036;9.344;2023-09-30T12:02:07;10.63;;;5.33;;
46363;SDS011;32071;49.036;9.344;2023-09-30T12:04:43;15.63;;;6.27;;
46363;SDS011;32071;49.036;9.344;2023-09-30T12:07:09;8.83;;;5.87;;
46363;SDS011;32071;49.036;9.344;2023-09-30T12:09:34;7.10;;;4.90;;
46363;SDS011;32071;49.036;9.344;2023-09-30T12:12:02;7.80;;;5.63;;
46363;SDS011;32071;49.036;9.344;2023-09-30T12:14:28;6.93;;;5.60;;
46363;SDS011;32071;49.036;9.344;2023-09-30T12:16:57;7.40;;;5.00;;
46363;SDS011;32071;49.036;9.344;2023-09-30T12:19:23;9.73;;;5.40;;
46363;SDS011;32071;49.036;9.344;2023-09-30T12:21:51;7.37;;;5.13;;
46363;SDS011;32071;49.036;9.344;2023-09-30T12:24:17;7.10;;;5.50;;
46363;SDS011;32071;49.036;9.344;2023-09-30T12:26:44;7.73;;;5.50;;
46363;SDS011;32071;49.036;9.344;2023-09-30T12:29:14;11.00;;;6.03;;
46363;SDS011;32071;49.036;9.344;2023-09-30T12:31:44;8.57;;;5.53;;
46363;SDS011;32071;49.036;9.344;2023-09-30T12:34:11;10.53;;;5.27;;
46363;SDS011;32071;49.036;9.344;2023-09-30T12:36:37;8.07;;;5.60;;
46363;SDS011;32071;49.036;9.344;2023-09-30T12:39:03;8.90;;;5.60;;
46363;SDS011;32071;49.036;9.344;2023-09-30T12:41:35;8.27;;;6.30;;
46363;SDS011;32071;49.036;9.344;2023-09-30T12:44:10;7.30;;;5.30;;
46363;SDS011;32071;49.036;9.344;2023-09-30T12:46:36;10.93;;;5.70;;
46363;SDS011;32071;49.036;9.344;2023-09-30T12:49:04;8.40;;;5.10;;
46363;SDS011;32071;49.036;9.344;2023-09-30T12:51:30;9.90;;;5.70;;
46363;SDS011;32071;49.036;9.344;2023-09-30T12:53:56;6.43;;;5.20;;
46363;SDS011;32071;49.036;9.344;2023-09-30T12:56:23;7.20;;;5.53;;
46363;SDS011;32071;49.036;9.344;2023-09-30T12:58:49;7.57;;;5.30;;
46363;SDS011;32071;49.036;9.344;2023-09-30T13:01:14;7.93;;;5.53;;
46363;SDS011;32071;49.036;9.344;2023-09-30T13:03:42;8.53;;;5.60;;
46363;SDS011;32071;49.036;9.344;2023-09-30T13:06:09;6.83;;;5.00;;
46363;SDS011;32071;49.036;9.344;2023-09-30T13:08:34;9.23;;;6.07;;
46363;SDS011;32071;49.036;9.344;2023-09-30T13:11:01;7.60;;;5.33;;
46363;SDS011;32071;49.036;9.344;2023-09-30T13:13:28;8.30;;;4.93;;
46363;SDS011;32071;49.036;9.344;2023-09-30T13:15:58;7.80;;;5.50;;
46363;SDS011;32071;49.036;9.344;2023-09-30T13:18:24;7.53;;;4.93;;
46363;SDS011;32071;49.036;9.344;2023-09-30T13:20:50;6.70;;;4.70;;
46363;SDS011;32071;49.036;9.344;2023-09-30T13:23:17;7.87;;;5.80;;
46363;SDS011;32071;49.036;9.344;2023-09-30T13:25:43;6.33;;;5.13;;
46363;SDS011;32071;49.036;9.344;2023-09-30T13:28:09;8.77;;;5.50;;
46363;SDS011;32071;49.036;9.344;2023-09-30T13:30:35;8.23;;;5.43;;
46363;SDS011;32071;49.036;9.344;2023-09-30T13:33:00;8.43;;;5.23;;
46363;SDS011;32071;49.036;9.344;2023-09-30T13:35:26;6.43;;;5.00;;
46363;SDS011;32071;49.036;9.344;2023-09-30T13:37:52;7.47;;;5.07;;
46363;SDS011;32071;49.036;9.344;2023-09-30T13:40:17;9.10;;;5.37;;
46363;SDS011;32071;49.036;9.344;2023-09-30T13:42:43;8.37;;;5.70;;
46363;SDS011;32071;49.036;9.344;2023-09-30T13:45:09;9.83;;;5.80;;
46363;SDS011;32071;49.036;9.344;2023-09-30T13:47:35;7.67;;;5.80;;
46363;SDS011;32071;49.036;9.344;2023-09-30T13:50:01;10.00;;;5.60;;
46363;SDS011;32071;49.036;9.344;2023-09-30T13:52:29;11.33;;;5.67;;
46363;SDS011;32071;49.036;9.344;2023-09-30T13:54:54;9.23;;;6.23;;
46363;SDS011;32071;49.036;9.344;2023-09-30T13:57:20;10.60;;;6.17;;
46363;SDS011;32071;49.036;9.344;2023-09-30T13:59:46;7.77;;;5.70;;
46363;SDS011;32071;49.036;9.344;2023-09-30T14:02:12;8.57;;;5.77;;
46363;SDS011;32071;49.036;9.344;2023-09-30T14:04:37;7.23;;;5.57;;
46363;SDS011;32071;49.036;9.344;2023-09-30T14:07:03;9.53;;;6.07;;
46363;SDS011;32071;49.036;9.344;2023-09-30T14:09:30;9.23;;;5.40;;
46363;SDS011;32071;49.036;9.344;2023-09-30T14:11:55;9.63;;;5.73;;
46363;SDS011;32071;49.036;9.344;2023-09-30T14:14:23;10.83;;;6.20;;
46363;SDS011;32071;49.036;9.344;2023-09-30T14:16:49;8.80;;;5.93;;
46363;SDS011;32071;49.036;9.344;2023-09-30T14:19:15;11.87;;;6.27;;
46363;SDS011;32071;49.036;9.344;2023-09-30T14:21:40;8.70;;;5.47;;
46363;SDS011;32071;49.036;9.344;2023-09-30T14:24:06;10.50;;;6.50;;
46363;SDS011;32071;49.036;9.344;2023-09-30T14:26:32;11.50;;;6.30;;
46363;SDS011;32071;49.036;9.344;2023-09-30T14:28:58;10.33;;;6.43;;
46363;SDS011;32071;49.036;9.344;2023-09-30T14:31:24;9.40;;;5.83;;
46363;SDS011;32071;49.036;9.344;2023-09-30T14:33:50;8.00;;;5.47;;
46363;SDS011;32071;49.036;9.344;2023-09-30T14:36:16;9.27;;;5.30;;
46363;SDS011;32071;49.036;9.344;2023-09-30T14:38:43;12.43;;;6.93;;
46363;SDS011;32071;49.036;9.344;2023-09-30T14:41:10;10.90;;;6.30;;
46363;SDS011;32071;49.036;9.344;2023-09-30T14:43:35;7.53;;;5.40;;
46363;SDS011;32071;49.036;9.344;2023-09-30T14:46:01;7.73;;;5.43;;
46363;SDS011;32071;49.036;9.344;2023-09-30T14:48:30;11.17;;;6.50;;
46363;SDS011;32071;49.036;9.344;2023-09-30T14:50:56;10.77;;;6.53;;
46363;SDS011;32071;49.036;9.344;2023-09-30T14:53:22;13.70;;;5.90;;
46363;SDS011;32071;49.036;9.344;2023-09-30T14:55:49;11.30;;;6.20;;
46363;SDS011;32071;49.036;9.344;2023-09-30T14:58:15;12.63;;;6.47;;
46363;SDS011;32071;49.036;9.344;2023-09-30T15:00:41;9.30;;;5.87;;
46363;SDS011;32071;49.036;9.344;2023-09-30T15:03:07;7.67;;;5.70;;